Amston, Connecticut
Current Conditions -  °F | °C
As of 5:52 AM on Friday 24 Oct 2014 (Local Time) from KIJD Reporting Station
Overcast Overcast  
Wind Chill: 50°   Ceiling: 1400
Heat Index: 50°   Visibility: 10mi
Dew Point: 45°   Wind: 10mph
Humidity: 83%   Direction: 340°NNW
Pressure: 29.72"   Gusts: NA
Location:  41.63°N, 72.34°W
Report Text: KIJD 240952Z AUTO 34009KT 10SM BKN014 OVC055 10/07 A2972 RMK AO2 SLP062 T01000072
Loading
Personal Weather Stations






























Interactive Weather Map
Tropical Storm Tracking
New forecast layout! Learn more

10-Day Weather Forecast

Advertisements
Track Severe Weather on mobile